createdAt,value
2022-11-13T00:00:03.895Z,-89.81
2022-11-13T00:01:03.924Z,-89.76
2022-11-13T00:02:03.874Z,-90.07
2022-11-13T00:03:03.835Z,-90.01
2022-11-13T00:04:03.873Z,-90.22
2022-11-13T00:05:03.806Z,-90.26
2022-11-13T00:06:03.839Z,-90.17
2022-11-13T00:07:03.795Z,-91.61
2022-11-13T00:08:03.747Z,-91.50
2022-11-13T00:09:03.727Z,-91.58
2022-11-13T00:10:04.060Z,-90.21
2022-11-13T00:11:03.782Z,-91.49
2022-11-13T00:12:03.838Z,-91.56
2022-11-13T00:13:03.718Z,-90.02
2022-11-13T00:14:03.678Z,-89.82
2022-11-13T00:15:03.783Z,-89.79
2022-11-13T00:16:06.761Z,-89.57
2022-11-13T00:17:06.760Z,-89.44
2022-11-13T00:18:03.687Z,-89.35
2022-11-13T00:19:03.604Z,-89.06
2022-11-13T00:20:03.608Z,-89.13
2022-11-13T00:21:03.757Z,-89.48
2022-11-13T00:22:03.678Z,-89.37
2022-11-13T00:23:03.589Z,-89.27
2022-11-13T00:24:03.571Z,-89.20
2022-11-13T00:25:03.511Z,-89.40
2022-11-13T00:26:03.552Z,-89.48
2022-11-13T00:27:03.601Z,-89.40
2022-11-13T00:28:03.500Z,-89.37
2022-11-13T00:29:03.540Z,-89.07
2022-11-13T00:30:03.467Z,-89.23
2022-11-13T00:31:03.473Z,-89.21
2022-11-13T00:32:03.454Z,-87.73
2022-11-13T00:33:03.523Z,-89.06
2022-11-13T00:34:33.254Z,-87.69
2022-11-13T00:35:04.412Z,-88.98
2022-11-13T00:36:06.481Z,-88.97
2022-11-13T00:37:06.394Z,-87.66
2022-11-13T00:38:03.388Z,-87.57
2022-11-13T00:39:03.364Z,-87.55
2022-11-13T00:40:03.413Z,-87.50
2022-11-13T00:41:03.325Z,-87.43
2022-11-13T00:42:03.393Z,-87.42
2022-11-13T00:43:03.306Z,-87.39
2022-11-13T00:44:03.265Z,-87.41
2022-11-13T00:45:03.266Z,-87.50
2022-11-13T00:46:03.273Z,-87.48
2022-11-13T00:47:03.274Z,-87.54
2022-11-13T00:48:03.256Z,-87.46
2022-11-13T00:49:03.203Z,-89.00
2022-11-13T00:50:03.276Z,-89.07
2022-11-13T00:51:03.195Z,-89.25
2022-11-13T00:52:03.237Z,-89.15
2022-11-13T00:53:03.206Z,-89.53
2022-11-13T00:54:03.295Z,-89.60
2022-11-13T00:55:03.175Z,-89.77
2022-11-13T00:56:06.127Z,-89.89
2022-11-13T00:57:06.150Z,-90.00
2022-11-13T00:58:03.151Z,-90.18
2022-11-13T00:59:03.078Z,-90.02
2022-11-13T01:00:03.134Z,-90.18
2022-11-13T01:01:03.105Z,-91.51
2022-11-13T01:02:03.137Z,-90.25
2022-11-13T01:03:03.056Z,-91.74
2022-11-13T01:04:03.050Z,-91.85
2022-11-13T01:05:02.986Z,-92.00
2022-11-13T01:06:03.061Z,-92.23
2022-11-13T01:07:03.042Z,-92.30
2022-11-13T01:08:02.979Z,-92.29
2022-11-13T01:09:02.960Z,-92.62
2022-11-13T01:10:02.942Z,-92.72
2022-11-13T01:11:02.968Z,-92.32
2022-11-13T01:12:02.940Z,-92.50
2022-11-13T01:13:02.921Z,-92.66
2022-11-13T01:14:02.912Z,-92.91
2022-11-13T01:15:02.862Z,-92.72
2022-11-13T01:16:05.909Z,-92.52
2022-11-13T01:17:05.909Z,-92.38
2022-11-13T01:18:02.868Z,-92.68
2022-11-13T01:19:02.951Z,-92.51
2022-11-13T01:20:02.847Z,-92.82
2022-11-13T01:21:02.793Z,-92.72
2022-11-13T01:22:02.791Z,-92.82
2022-11-13T01:23:02.802Z,-92.76
2022-11-13T01:24:02.769Z,-92.76
2022-11-13T01:25:02.792Z,-94.48
2022-11-13T01:26:02.777Z,-94.34
2022-11-13T01:27:02.714Z,-94.34
2022-11-13T01:28:02.752Z,-94.43
2022-11-13T01:29:02.730Z,-92.92
2022-11-13T01:30:02.676Z,-94.36
2022-11-13T01:31:02.711Z,-94.34
2022-11-13T01:32:02.692Z,-92.81
2022-11-13T01:33:02.614Z,-92.78
2022-11-13T01:34:02.632Z,-92.86
2022-11-13T01:35:02.623Z,-92.76
2022-11-13T01:36:05.639Z,-92.48
2022-11-13T01:37:05.627Z,-92.40
2022-11-13T01:38:02.604Z,-92.45
2022-11-13T01:39:02.543Z,-92.53
2022-11-13T01:40:02.540Z,-92.34
2022-11-13T01:41:02.545Z,-92.19
2022-11-13T01:42:09.992Z,-92.21
2022-11-13T01:43:02.442Z,-92.03
2022-11-13T01:44:02.431Z,-92.05
2022-11-13T01:45:02.412Z,-91.81
2022-11-13T01:46:02.403Z,-91.72
2022-11-13T01:47:02.411Z,-91.83
2022-11-13T01:48:02.375Z,-91.67
2022-11-13T01:49:02.354Z,-91.88
2022-11-13T01:50:02.373Z,-91.90
2022-11-13T01:51:02.333Z,-92.00
2022-11-13T01:52:02.321Z,-92.08
2022-11-13T01:53:02.304Z,-92.18
2022-11-13T01:54:02.314Z,-92.29
2022-11-13T01:55:02.285Z,-92.18
2022-11-13T01:56:05.263Z,-92.30
2022-11-13T01:57:05.266Z,-92.17
2022-11-13T01:58:02.237Z,-92.48
2022-11-13T01:59:02.294Z,-92.44
2022-11-13T02:00:02.204Z,-92.78
2022-11-13T02:01:02.186Z,-92.76
2022-11-13T02:02:02.244Z,-92.67
2022-11-13T02:03:02.155Z,-92.74
2022-11-13T02:04:02.148Z,-92.76
2022-11-13T02:05:02.166Z,-94.16
2022-11-13T02:06:02.168Z,-94.45
2022-11-13T02:07:02.144Z,-94.48
2022-11-13T02:08:02.097Z,-94.61
2022-11-13T02:09:02.076Z,-94.59
2022-11-13T02:10:02.076Z,-94.70
2022-11-13T02:11:02.054Z,-94.69
2022-11-13T02:12:02.068Z,-94.69
2022-11-13T02:13:02.027Z,-94.76
2022-11-13T02:14:02.019Z,-94.78
2022-11-13T02:15:02.001Z,-94.48
2022-11-13T02:16:05.025Z,-94.43
2022-11-13T02:17:04.989Z,-94.14
2022-11-13T02:18:01.979Z,-92.91
2022-11-13T02:19:01.939Z,-92.65
2022-11-13T02:20:01.934Z,-92.91
2022-11-13T02:21:01.912Z,-94.31
2022-11-13T02:22:01.928Z,-94.55
2022-11-13T02:23:01.890Z,-94.42
2022-11-13T02:24:01.880Z,-94.47
2022-11-13T02:25:01.864Z,-94.45
2022-11-13T02:26:01.900Z,-94.25
2022-11-13T02:27:01.836Z,-94.29
2022-11-13T02:28:01.823Z,-94.40
2022-11-13T02:29:01.800Z,-92.89
2022-11-13T02:30:01.791Z,-92.88
2022-11-13T02:31:01.782Z,-92.91
2022-11-13T02:32:01.792Z,-92.70
2022-11-13T02:33:01.741Z,-92.61
2022-11-13T02:34:01.732Z,-92.76
2022-11-13T02:35:01.728Z,-92.72
2022-11-13T02:36:04.725Z,-92.90
2022-11-13T02:37:04.745Z,-92.71
2022-11-13T02:38:01.696Z,-92.94
2022-11-13T02:39:01.664Z,-94.25
2022-11-13T02:40:01.653Z,-94.24
2022-11-13T02:41:01.662Z,-92.87
2022-11-13T02:42:01.625Z,-92.76
2022-11-13T02:43:01.635Z,-92.82
2022-11-13T02:44:01.644Z,-92.93
2022-11-13T02:45:01.589Z,-94.27
2022-11-13T02:46:01.577Z,-94.32
2022-11-13T02:47:01.563Z,-92.91
2022-11-13T02:48:01.565Z,-92.93
2022-11-13T02:49:01.537Z,-92.89
2022-11-13T02:50:01.545Z,-94.23
2022-11-13T02:51:01.518Z,-94.35
2022-11-13T02:52:01.517Z,-92.94
2022-11-13T02:53:01.477Z,-92.91
2022-11-13T02:54:01.463Z,-92.69
2022-11-13T02:55:01.543Z,-92.80
2022-11-13T02:56:04.438Z,-92.67
2022-11-13T02:57:04.437Z,-92.65
2022-11-13T02:58:01.406Z,-92.47
2022-11-13T02:59:01.431Z,-92.66
2022-11-13T03:00:01.384Z,-92.53
2022-11-13T03:01:01.397Z,-92.61
2022-11-13T03:02:01.485Z,-92.40
2022-11-13T03:03:01.488Z,-92.55
2022-11-13T03:04:01.341Z,-92.36
2022-11-13T03:05:16.604Z,-92.44
2022-11-13T03:06:02.348Z,-92.50
2022-11-13T03:07:01.330Z,-92.34
2022-11-13T03:08:01.280Z,-92.46
2022-11-13T03:09:01.260Z,-92.65
2022-11-13T03:10:01.246Z,-92.68
2022-11-13T03:11:01.250Z,-92.69
2022-11-13T03:12:01.261Z,-92.79
2022-11-13T03:13:01.208Z,-94.26
2022-11-13T03:14:01.201Z,-92.92
2022-11-13T03:15:01.197Z,-92.84
2022-11-13T03:16:04.159Z,-92.85
2022-11-13T03:17:04.192Z,-92.69
2022-11-13T03:18:01.150Z,-92.86
2022-11-13T03:19:01.120Z,-94.47
2022-11-13T03:20:01.101Z,-94.59
2022-11-13T03:21:01.114Z,-94.43
2022-11-13T03:22:01.102Z,-94.42
2022-11-13T03:23:01.063Z,-94.31
2022-11-13T03:24:01.063Z,-94.34
2022-11-13T03:25:02.159Z,-94.27
2022-11-13T03:26:01.023Z,-94.34
2022-11-13T03:27:01.042Z,-92.97
2022-11-13T03:28:01.004Z,-92.94
2022-11-13T03:29:00.986Z,-92.87
2022-11-13T03:30:00.964Z,-94.13
2022-11-13T03:31:00.968Z,-92.89
2022-11-13T03:32:00.964Z,-92.86
2022-11-13T03:33:00.929Z,-92.80
2022-11-13T03:34:00.915Z,-92.74
2022-11-13T03:35:00.895Z,-92.34
2022-11-13T03:36:03.889Z,-92.35
2022-11-13T03:37:03.905Z,-92.23
2022-11-13T03:38:00.875Z,-92.09
2022-11-13T03:39:00.844Z,-92.21
2022-11-13T03:40:00.834Z,-92.04
2022-11-13T03:41:00.814Z,-92.04
2022-11-13T03:42:00.828Z,-91.75
2022-11-13T03:43:00.854Z,-91.77
2022-11-13T03:44:00.795Z,-91.84
2022-11-13T03:45:00.757Z,-91.86
2022-11-13T03:46:00.750Z,-91.84
2022-11-13T03:47:00.725Z,-91.56
2022-11-13T03:48:00.754Z,-91.63
2022-11-13T03:49:00.729Z,-91.62
2022-11-13T03:50:00.715Z,-91.75
2022-11-13T03:51:00.676Z,-91.74
2022-11-13T03:52:00.656Z,-91.63
2022-11-13T03:53:00.688Z,-91.58
2022-11-13T03:54:00.657Z,-91.60
2022-11-13T03:55:00.647Z,-91.51
2022-11-13T03:56:03.603Z,-91.56
2022-11-13T03:57:03.608Z,-91.49
2022-11-13T03:58:00.591Z,-91.67
2022-11-13T03:59:00.570Z,-91.66
2022-11-13T04:00:00.588Z,-91.63
2022-11-13T04:01:00.541Z,-90.22
2022-11-13T04:02:00.560Z,-91.59
2022-11-13T04:03:00.510Z,-91.66
2022-11-13T04:04:00.499Z,-91.47
2022-11-13T04:05:00.494Z,-90.22
2022-11-13T04:06:00.499Z,-91.48
2022-11-13T04:07:00.527Z,-90.22
2022-11-13T04:08:00.535Z,-91.62
2022-11-13T04:09:00.439Z,-91.81
2022-11-13T04:10:00.420Z,-91.67
2022-11-13T04:11:00.432Z,-91.75
2022-11-13T04:12:00.421Z,-91.66
2022-11-13T04:13:00.381Z,-90.13
2022-11-13T04:14:00.372Z,-91.52
2022-11-13T04:15:00.360Z,-90.09
2022-11-13T04:16:03.341Z,-90.02
2022-11-13T04:17:03.394Z,-89.91
2022-11-13T04:18:00.312Z,-89.87
2022-11-13T04:19:00.301Z,-89.79
2022-11-13T04:20:00.293Z,-89.71
2022-11-13T04:21:00.325Z,-89.82
2022-11-13T04:22:00.266Z,-89.69
2022-11-13T04:23:00.307Z,-89.57
2022-11-13T04:24:00.244Z,-89.58
2022-11-13T04:25:00.238Z,-89.33
2022-11-13T04:26:00.216Z,-89.37
2022-11-13T04:27:00.210Z,-89.33
2022-11-13T04:28:00.184Z,-89.39
2022-11-13T04:29:00.194Z,-89.50
2022-11-13T04:30:00.155Z,-89.30
2022-11-13T04:31:00.155Z,-89.33
2022-11-13T04:32:00.139Z,-89.36
2022-11-13T04:33:00.206Z,-89.29
2022-11-13T04:34:00.139Z,-89.26
2022-11-13T04:35:00.148Z,-89.25
2022-11-13T04:36:03.076Z,-89.55
2022-11-13T04:37:03.084Z,-89.26
2022-11-13T04:38:00.069Z,-89.40
2022-11-13T04:39:00.046Z,-89.39
2022-11-13T04:40:00.026Z,-89.21
2022-11-13T04:41:00.057Z,-89.28
2022-11-13T04:42:00.009Z,-89.25
2022-11-13T04:43:00.000Z,-89.29
2022-11-13T04:43:59.977Z,-89.06
2022-11-13T04:44:59.976Z,-89.04
2022-11-13T04:45:59.958Z,-89.00
2022-11-13T04:46:59.975Z,-89.14
2022-11-13T04:47:59.928Z,-89.04
2022-11-13T04:48:59.911Z,-87.28
2022-11-13T04:49:59.899Z,-87.35
2022-11-13T04:50:59.888Z,-87.33
2022-11-13T04:51:59.869Z,-87.19
2022-11-13T04:52:59.889Z,-87.06
2022-11-13T04:53:59.840Z,-87.25
2022-11-13T04:54:59.830Z,-86.93
2022-11-13T04:56:02.827Z,-86.76
2022-11-13T04:57:02.822Z,-86.53
2022-11-13T04:57:59.829Z,-85.15
2022-11-13T04:58:59.780Z,-85.22
2022-11-13T04:59:59.771Z,-85.19
2022-11-13T05:00:59.750Z,-85.21
2022-11-13T05:01:59.803Z,-85.23
2022-11-13T05:02:59.732Z,-85.21
2022-11-13T05:03:59.780Z,-85.30
2022-11-13T05:05:04.607Z,-84.88
2022-11-13T05:06:00.689Z,-85.23
2022-11-13T05:06:59.744Z,-84.87
2022-11-13T05:07:59.660Z,-85.12
2022-11-13T05:08:59.653Z,-84.98
2022-11-13T05:09:59.664Z,-84.86
2022-11-13T05:10:59.623Z,-84.48
2022-11-13T05:11:59.611Z,-84.39
2022-11-13T05:12:59.602Z,-82.77
2022-11-13T05:14:03.457Z,-82.88
2022-11-13T05:14:59.573Z,-83.01
2022-11-13T05:16:02.632Z,-82.94
2022-11-13T05:17:02.563Z,-82.81
2022-11-13T05:17:59.532Z,-82.67
2022-11-13T05:18:59.519Z,-82.62
2022-11-13T05:19:59.504Z,-82.58
2022-11-13T05:20:59.506Z,-82.40
2022-11-13T05:21:59.614Z,-82.45
2022-11-13T05:22:59.469Z,-82.46
2022-11-13T05:23:59.454Z,-82.25
2022-11-13T05:24:59.449Z,-82.30
2022-11-13T05:25:59.426Z,-82.37
2022-11-13T05:26:59.449Z,-82.18
2022-11-13T05:27:59.451Z,-80.77
2022-11-13T05:28:59.424Z,-82.18
2022-11-13T05:29:59.376Z,-82.32
2022-11-13T05:30:59.367Z,-80.75
2022-11-13T05:31:59.347Z,-82.08
2022-11-13T05:32:59.366Z,-82.29
2022-11-13T05:34:04.357Z,-82.21
2022-11-13T05:35:00.357Z,-82.30
2022-11-13T05:36:02.304Z,-82.50
2022-11-13T05:37:02.306Z,-82.26
2022-11-13T05:37:59.274Z,-82.31
2022-11-13T05:38:59.267Z,-82.39
2022-11-13T05:39:59.279Z,-82.27
2022-11-13T05:40:59.238Z,-82.13
2022-11-13T05:41:59.220Z,-80.67
2022-11-13T05:42:59.207Z,-80.50
2022-11-13T05:43:59.897Z,-80.17
2022-11-13T05:44:59.179Z,-78.69
2022-11-13T05:45:59.169Z,-78.56
2022-11-13T05:46:59.159Z,-78.43
2022-11-13T05:47:59.141Z,-79.95
2022-11-13T05:48:59.140Z,-79.98
2022-11-13T05:49:59.141Z,-80.13
2022-11-13T05:50:59.113Z,-78.72
2022-11-13T05:51:59.090Z,-80.01
2022-11-13T05:52:59.090Z,-80.12
2022-11-13T05:53:59.091Z,-80.04
2022-11-13T05:54:59.061Z,-80.04
2022-11-13T05:56:02.042Z,-80.24
2022-11-13T05:57:02.071Z,-80.10
2022-11-13T05:57:59.010Z,-80.17
2022-11-13T05:58:59.001Z,-80.09
2022-11-13T05:59:59.049Z,-80.22
2022-11-13T06:00:58.973Z,-80.32
2022-11-13T06:01:58.993Z,-80.21
2022-11-13T06:02:58.953Z,-80.31
2022-11-13T06:03:58.932Z,-80.13
2022-11-13T06:04:58.953Z,-78.68
2022-11-13T06:05:58.932Z,-80.25
2022-11-13T06:06:58.972Z,-80.39
2022-11-13T06:07:58.923Z,-80.39
2022-11-13T06:08:58.896Z,-80.47
2022-11-13T06:09:58.863Z,-80.43
2022-11-13T06:10:58.844Z,-80.25
2022-11-13T06:11:58.833Z,-80.42
2022-11-13T06:12:58.825Z,-80.43
2022-11-13T06:13:58.858Z,-80.46
2022-11-13T06:14:58.816Z,-80.38
2022-11-13T06:16:01.781Z,-80.48
2022-11-13T06:17:01.864Z,-80.36
2022-11-13T06:17:58.755Z,-80.62
2022-11-13T06:18:58.752Z,-80.35
2022-11-13T06:19:58.728Z,-80.42
2022-11-13T06:20:58.715Z,-80.71
2022-11-13T06:21:58.877Z,-80.63
2022-11-13T06:22:58.686Z,-80.61
2022-11-13T06:23:58.673Z,-80.63
2022-11-13T06:24:58.657Z,-80.74
2022-11-13T06:25:58.651Z,-80.54
2022-11-13T06:26:58.637Z,-80.65
2022-11-13T06:27:58.647Z,-80.75
2022-11-13T06:28:58.609Z,-80.86
2022-11-13T06:29:58.597Z,-80.63
2022-11-13T06:30:58.578Z,-80.57
2022-11-13T06:31:58.568Z,-80.60
2022-11-13T06:32:58.784Z,-80.57
2022-11-13T06:33:58.541Z,-80.62
2022-11-13T06:34:58.567Z,-80.62
2022-11-13T06:36:01.520Z,-80.54
2022-11-13T06:37:01.980Z,-80.51
2022-11-13T06:37:58.488Z,-80.61
2022-11-13T06:38:58.545Z,-80.62
2022-11-13T06:39:58.460Z,-80.86
2022-11-13T06:40:58.481Z,-80.73
2022-11-13T06:41:58.440Z,-80.73
2022-11-13T06:42:58.430Z,-80.60
2022-11-13T06:44:02.257Z,-80.82
2022-11-13T06:44:58.401Z,-80.57
2022-11-13T06:45:58.410Z,-80.61
2022-11-13T06:46:58.373Z,-80.42
2022-11-13T06:47:58.359Z,-80.46
2022-11-13T06:48:58.351Z,-80.34
2022-11-13T06:49:58.381Z,-80.25
2022-11-13T06:50:58.323Z,-80.15
2022-11-13T06:51:58.302Z,-78.68
2022-11-13T06:52:58.303Z,-78.61
2022-11-13T06:53:58.297Z,-78.43
2022-11-13T06:54:58.271Z,-78.33
2022-11-13T06:56:01.310Z,-78.32
2022-11-13T06:57:01.264Z,-78.23
2022-11-13T06:57:58.224Z,-78.42
2022-11-13T06:58:58.215Z,-78.51
2022-11-13T06:59:58.204Z,-78.49
2022-11-13T07:00:58.250Z,-78.59
2022-11-13T07:01:58.194Z,-80.06
2022-11-13T07:02:58.161Z,-80.09
2022-11-13T07:03:58.145Z,-80.34
2022-11-13T07:04:58.142Z,-80.20
2022-11-13T07:05:58.121Z,-80.35
2022-11-13T07:06:58.202Z,-80.33
2022-11-13T07:07:58.095Z,-80.31
2022-11-13T07:08:58.076Z,-80.32
2022-11-13T07:09:58.065Z,-80.44
2022-11-13T07:10:58.049Z,-80.49
2022-11-13T07:11:58.040Z,-80.62
2022-11-13T07:12:58.048Z,-80.57
2022-11-13T07:13:58.015Z,-80.76
2022-11-13T07:14:58.050Z,-80.82
2022-11-13T07:16:05.888Z,-80.75
2022-11-13T07:17:09.703Z,-80.75
2022-11-13T07:17:58.958Z,-80.80
2022-11-13T07:18:57.946Z,-80.82
2022-11-13T07:19:57.947Z,-82.13
2022-11-13T07:20:57.960Z,-82.46
2022-11-13T07:21:57.908Z,-82.27
2022-11-13T07:22:57.914Z,-82.56
2022-11-13T07:23:57.879Z,-82.57
2022-11-13T07:24:57.868Z,-82.78
2022-11-13T07:25:57.860Z,-82.65
2022-11-13T07:26:57.868Z,-83.00
2022-11-13T07:27:57.846Z,-82.65
2022-11-13T07:28:57.813Z,-82.51
2022-11-13T07:30:03.197Z,-82.46
2022-11-13T07:30:58.789Z,-82.56
2022-11-13T07:31:57.802Z,-82.65
2022-11-13T07:32:57.784Z,-82.86
2022-11-13T07:33:57.751Z,-82.79
2022-11-13T07:34:57.735Z,-82.88
2022-11-13T07:36:00.724Z,-83.05
2022-11-13T07:37:00.743Z,-82.97
2022-11-13T07:37:57.716Z,-84.41
2022-11-13T07:39:00.188Z,-84.49
2022-11-13T07:39:57.664Z,-84.50
2022-11-13T07:40:57.654Z,-84.88
2022-11-13T07:41:57.833Z,-84.77
2022-11-13T07:42:57.626Z,-85.12
2022-11-13T07:43:57.629Z,-85.06
2022-11-13T07:44:57.673Z,-86.64
2022-11-13T07:45:57.614Z,-86.72
2022-11-13T07:46:57.581Z,-86.71
2022-11-13T07:47:57.607Z,-86.83
2022-11-13T07:48:57.545Z,-86.92
2022-11-13T07:50:04.398Z,-87.10
2022-11-13T07:50:58.525Z,-87.12
2022-11-13T07:51:57.515Z,-87.27
2022-11-13T07:52:57.538Z,-87.29
2022-11-13T07:53:57.520Z,-87.76
2022-11-13T07:54:57.496Z,-89.06
2022-11-13T07:56:00.465Z,-89.37
2022-11-13T07:57:00.457Z,-89.46
2022-11-13T07:57:57.441Z,-89.23
2022-11-13T07:58:57.467Z,-89.27
2022-11-13T07:59:57.413Z,-89.35
2022-11-13T08:00:57.523Z,-89.53
2022-11-13T08:01:57.477Z,-89.60
2022-11-13T08:02:57.376Z,-89.88
2022-11-13T08:03:57.361Z,-89.66
2022-11-13T08:04:57.369Z,-90.00
2022-11-13T08:05:57.337Z,-90.02
2022-11-13T08:06:57.440Z,-89.97
2022-11-13T08:07:57.307Z,-90.09
2022-11-13T08:08:57.305Z,-90.07
2022-11-13T08:09:57.279Z,-91.68
2022-11-13T08:10:57.268Z,-91.60
2022-11-13T08:11:57.307Z,-91.55
2022-11-13T08:12:57.239Z,-90.23
2022-11-13T08:13:57.241Z,-91.66
2022-11-13T08:14:57.213Z,-91.49
2022-11-13T08:16:00.202Z,-92.09
2022-11-13T08:17:00.251Z,-92.40
2022-11-13T08:17:57.171Z,-92.46
2022-11-13T08:18:57.161Z,-92.68
2022-11-13T08:19:57.151Z,-92.88
2022-11-13T08:20:57.131Z,-94.42
2022-11-13T08:21:57.122Z,-94.61
2022-11-13T08:22:57.132Z,-94.81
2022-11-13T08:23:57.092Z,-94.97
2022-11-13T08:24:57.073Z,-94.63
2022-11-13T08:25:57.062Z,-94.73
2022-11-13T08:26:57.083Z,-94.69
2022-11-13T08:27:57.032Z,-94.68
2022-11-13T08:28:57.019Z,-94.61
2022-11-13T08:29:57.003Z,-94.71
2022-11-13T08:30:56.992Z,-94.59
2022-11-13T08:31:56.984Z,-94.63
2022-11-13T08:32:56.984Z,-95.08
2022-11-13T08:33:56.950Z,-95.47
2022-11-13T08:34:56.940Z,-95.37
2022-11-13T08:35:59.930Z,-95.56
2022-11-13T08:36:59.928Z,-95.55
2022-11-13T08:37:56.924Z,-95.51
2022-11-13T08:38:56.914Z,-95.82
2022-11-13T08:39:56.864Z,-97.59
2022-11-13T08:40:56.907Z,-97.62
2022-11-13T08:41:56.855Z,-97.36
2022-11-13T08:42:56.827Z,-97.62
2022-11-13T08:43:56.815Z,-97.51
2022-11-13T08:44:56.802Z,-97.49
2022-11-13T08:45:56.786Z,-97.97
2022-11-13T08:46:56.806Z,-98.10
2022-11-13T08:47:56.761Z,-98.19
2022-11-13T08:48:56.746Z,-98.33
2022-11-13T08:49:56.730Z,-98.44
2022-11-13T08:50:56.716Z,-98.71
2022-11-13T08:51:56.699Z,-98.79
2022-11-13T08:52:56.737Z,-99.00
2022-11-13T08:53:56.668Z,-100.60
2022-11-13T08:54:56.696Z,-101.05
2022-11-13T08:55:59.638Z,-101.06
2022-11-13T08:57:04.717Z,-101.12
2022-11-13T08:57:57.669Z,-101.61
2022-11-13T08:58:56.610Z,-101.34
2022-11-13T08:59:56.593Z,-101.69
2022-11-13T09:00:56.569Z,-102.07
2022-11-13T09:01:56.559Z,-101.93
2022-11-13T09:02:56.548Z,-101.91
2022-11-13T09:03:56.616Z,-102.08
2022-11-13T09:04:56.519Z,-102.08
2022-11-13T09:05:56.510Z,-102.37
2022-11-13T09:06:56.535Z,-102.66
2022-11-13T09:07:56.483Z,-102.93
2022-11-13T09:08:56.561Z,-104.28
2022-11-13T09:09:56.454Z,-102.75
2022-11-13T09:10:56.439Z,-103.06
2022-11-13T09:11:56.421Z,-103.01
2022-11-13T09:12:56.412Z,-104.50
2022-11-13T09:13:56.401Z,-105.07
2022-11-13T09:14:56.437Z,-104.74
2022-11-13T09:15:59.373Z,-105.33
2022-11-13T09:16:59.372Z,-105.57
2022-11-13T09:17:56.343Z,-105.56
2022-11-13T09:18:56.333Z,-105.55
2022-11-13T09:20:00.817Z,-105.92
2022-11-13T09:20:57.343Z,-105.47
2022-11-13T09:21:56.294Z,-105.59
2022-11-13T09:22:56.277Z,-106.41
2022-11-13T09:23:56.266Z,-107.14
2022-11-13T09:24:56.245Z,-107.12
2022-11-13T09:25:56.236Z,-106.85
2022-11-13T09:26:56.248Z,-107.27
2022-11-13T09:27:56.214Z,-107.73
2022-11-13T09:28:56.195Z,-108.14
2022-11-13T09:29:56.186Z,-108.22
2022-11-13T09:30:56.176Z,-108.18
2022-11-13T09:31:56.195Z,-108.96
2022-11-13T09:32:56.138Z,-109.40
2022-11-13T09:33:56.137Z,-109.65
2022-11-13T09:34:56.116Z,-109.52
2022-11-13T09:35:59.108Z,-109.99
2022-11-13T09:36:59.177Z,-110.03
2022-11-13T09:37:56.093Z,-109.99
2022-11-13T09:38:56.058Z,-110.45
2022-11-13T09:39:56.052Z,-110.70
2022-11-13T09:40:56.039Z,-111.32
2022-11-13T09:41:56.019Z,-111.52
2022-11-13T09:42:56.040Z,-111.26
2022-11-13T09:43:59.870Z,-111.75
2022-11-13T09:44:55.981Z,-112.24
2022-11-13T09:45:55.973Z,-112.65
2022-11-13T09:46:55.959Z,-112.59
2022-11-13T09:47:55.977Z,-113.04
2022-11-13T09:48:55.980Z,-113.61
2022-11-13T09:49:55.923Z,-114.18
2022-11-13T09:50:55.900Z,-114.26
2022-11-13T09:51:55.890Z,-115.14
2022-11-13T09:52:55.871Z,-115.46
2022-11-13T09:53:55.870Z,-114.67
2022-11-13T09:54:55.882Z,-114.00
2022-11-13T09:55:58.832Z,-113.72
2022-11-13T09:56:58.836Z,-114.27
2022-11-13T09:57:55.814Z,-114.14
2022-11-13T09:58:55.792Z,-114.06
2022-11-13T09:59:55.783Z,-114.74
2022-11-13T10:00:55.806Z,-115.25
2022-11-13T10:01:55.753Z,-115.41
2022-11-13T10:02:55.733Z,-115.34
2022-11-13T10:04:04.361Z,-115.83
2022-11-13T10:04:56.864Z,-115.58
2022-11-13T10:05:55.704Z,-115.50
2022-11-13T10:06:55.755Z,-115.81
2022-11-13T10:07:55.675Z,-115.99
2022-11-13T10:08:55.656Z,-116.51
2022-11-13T10:09:55.645Z,-116.55
2022-11-13T10:10:56.279Z,-116.93
2022-11-13T10:11:55.617Z,-117.05
2022-11-13T10:12:55.607Z,-116.74
2022-11-13T10:13:55.598Z,-116.67
2022-11-13T10:14:55.577Z,-116.51
2022-11-13T10:15:58.617Z,-116.84
2022-11-13T10:16:58.565Z,-117.02
2022-11-13T10:17:56.994Z,-116.81
2022-11-13T10:18:55.527Z,-116.80
2022-11-13T10:19:55.510Z,-116.68
2022-11-13T10:20:55.497Z,-117.52
2022-11-13T10:22:07.613Z,-118.11
2022-11-13T10:22:56.519Z,-118.08
2022-11-13T10:23:55.462Z,-117.94
2022-11-13T10:24:55.443Z,-118.44
2022-11-13T10:25:55.436Z,-119.14
2022-11-13T10:26:55.410Z,-118.84
2022-11-13T10:27:55.467Z,-119.36
2022-11-13T10:28:55.578Z,-119.65
2022-11-13T10:29:55.371Z,-120.08
2022-11-13T10:30:55.360Z,-120.03
2022-11-13T10:31:55.349Z,-120.23
2022-11-13T10:32:55.340Z,-119.99
2022-11-13T10:33:55.336Z,-120.46
2022-11-13T10:34:55.335Z,-121.13
2022-11-13T10:35:58.304Z,-120.95
2022-11-13T10:36:58.293Z,-121.15
2022-11-13T10:37:55.265Z,-120.99
2022-11-13T10:38:55.279Z,-120.98
2022-11-13T10:39:55.264Z,-120.92
2022-11-13T10:40:55.264Z,-121.23
2022-11-13T10:41:55.217Z,-121.57
2022-11-13T10:42:55.203Z,-121.83
2022-11-13T10:43:55.191Z,-122.55
2022-11-13T10:44:55.177Z,-122.91
2022-11-13T10:45:55.161Z,-122.91
2022-11-13T10:46:55.165Z,-123.59
2022-11-13T10:48:04.136Z,-124.33
2022-11-13T10:48:56.139Z,-124.81
2022-11-13T10:49:55.104Z,-124.78
2022-11-13T10:50:55.085Z,-123.96
2022-11-13T10:51:55.105Z,-125.31
2022-11-13T10:52:55.056Z,-125.65
2022-11-13T10:53:55.046Z,-126.03
2022-11-13T10:54:55.050Z,-127.01
2022-11-13T10:55:58.016Z,-127.24
2022-11-13T10:56:58.077Z,-127.24
2022-11-13T10:57:56.501Z,-127.24
2022-11-13T10:58:54.987Z,-127.24
2022-11-13T10:59:54.967Z,-127.06
2022-11-13T11:00:55.012Z,-126.88
2022-11-13T11:01:54.938Z,-127.07
2022-11-13T11:02:54.979Z,-127.24
2022-11-13T11:03:54.909Z,-128.46
2022-11-13T11:04:54.889Z,-128.46
2022-11-13T11:05:54.880Z,-128.46
2022-11-13T11:07:19.172Z,-128.46
2022-11-13T11:07:56.118Z,-129.68
2022-11-13T11:08:54.840Z,-128.46
2022-11-13T11:09:54.830Z,-128.46
2022-11-13T11:10:54.813Z,-128.46
2022-11-13T11:11:54.812Z,-129.68
2022-11-13T11:12:54.790Z,-129.68
2022-11-13T11:13:54.812Z,-129.68
2022-11-13T11:14:54.780Z,-129.68
2022-11-13T11:15:57.757Z,-129.68
2022-11-13T11:16:57.751Z,-129.68
2022-11-13T11:17:54.730Z,-130.90
2022-11-13T11:18:54.733Z,-130.90
2022-11-13T11:19:54.723Z,-130.90
2022-11-13T11:20:54.799Z,-130.90
2022-11-13T11:21:54.694Z,-130.90
2022-11-13T11:22:54.654Z,-130.90
2022-11-13T11:23:56.249Z,-129.68
2022-11-13T11:24:54.635Z,-130.90
2022-11-13T11:25:54.666Z,-130.90
2022-11-13T11:26:54.607Z,-130.90
2022-11-13T11:27:54.586Z,-132.12
2022-11-13T11:28:54.577Z,-132.12
2022-11-13T11:29:54.561Z,-132.12
2022-11-13T11:30:54.626Z,-133.34
2022-11-13T11:31:54.585Z,-133.34
2022-11-13T11:32:54.517Z,-132.12
2022-11-13T11:33:54.507Z,-132.12
2022-11-13T11:34:58.990Z,-132.12
2022-11-13T11:35:57.481Z,-132.12
2022-11-13T11:36:57.559Z,-132.12
2022-11-13T11:37:54.463Z,-132.12
2022-11-13T11:38:54.443Z,-132.12
2022-11-13T11:39:54.424Z,-132.12
2022-11-13T11:40:54.412Z,-132.12
2022-11-13T11:41:54.400Z,-132.12
2022-11-13T11:42:54.410Z,-132.12
2022-11-13T11:43:54.370Z,-133.34
2022-11-13T11:44:54.361Z,-133.34
2022-11-13T11:45:54.341Z,-133.34
2022-11-13T11:46:54.349Z,-133.34
2022-11-13T11:47:54.342Z,-133.34
2022-11-13T11:48:54.327Z,-133.34
2022-11-13T11:49:54.299Z,-134.56
2022-11-13T11:50:54.273Z,-134.56
2022-11-13T11:51:54.264Z,-134.56
2022-11-13T11:52:54.253Z,-135.77
2022-11-13T11:53:54.262Z,-134.56
2022-11-13T11:54:54.226Z,-133.34
2022-11-13T11:55:57.195Z,-134.56
2022-11-13T11:56:57.257Z,-134.56
2022-11-13T11:57:54.178Z,-134.56
2022-11-13T11:58:54.215Z,-134.56
2022-11-13T11:59:54.147Z,-134.56
2022-11-13T12:00:54.136Z,-134.56
2022-11-13T12:01:54.114Z,-134.56
2022-11-13T12:02:54.106Z,-134.56
2022-11-13T12:03:54.085Z,-134.56
2022-11-13T12:04:54.181Z,-134.56
2022-11-13T12:05:54.086Z,-134.56
2022-11-13T12:06:54.089Z,-134.56
2022-11-13T12:07:54.028Z,-134.56
2022-11-13T12:08:54.037Z,-134.56
2022-11-13T12:09:54.007Z,-134.56
2022-11-13T12:10:54.028Z,-134.56
2022-11-13T12:11:53.970Z,-134.56
2022-11-13T12:12:53.960Z,-133.34
2022-11-13T12:13:53.940Z,-133.34
2022-11-13T12:14:53.932Z,-133.34
2022-11-13T12:15:56.959Z,-133.34
2022-11-13T12:16:56.919Z,-133.34
2022-11-13T12:17:53.891Z,-133.34
2022-11-13T12:18:53.878Z,-133.34
2022-11-13T12:19:53.859Z,-132.12
2022-11-13T12:20:53.854Z,-132.12